Latest Coastal Weather Observations for Portland Harbour

IDV60701

Issued at 12:51 am EST Thursday 3 September 2015 (issued every 10 minutes, with the page automatically refreshed every 10 minutes)

About coastal observations | Map of coastal stations | Coastal observations for VIC | Marine services | Other Formats
Station Details ID: 090192 Name: PORTLAND NTC AWS Lat: -38.34 Lon: 141.61 Height: 0.0 m
Data from the previous 72 hours. | See also: Recent months for locations in Victoria
Date/Time
EST
Temp

°C
Wind Pressure Rain
since 9am
mm
Weather Cloud Vis
km
Sea
Height
m
Swell
Dir
 
Speed
knots
Gust
knots
hPa Trend Height
m
Period
s
Dir
03/12:30am 11.6 SSE 6 9 1009.4 - - - - - - - - -
03/12:00am 11.0 SSW 4 5 1009.1 - - - - - - - - -
 
Date/Time
EST
Temp

°C
Wind Pressure Rain
since 9am
mm
Weather Cloud Vis
km
Sea
Height
m
Swell
Dir
 
Speed
knots
Gust
knots
hPa Trend Height
m
Period
s
Dir
02/11:30pm 10.6 SSW 4 4 1009.0 - - - - - - - - -
02/11:00pm 10.8 S 2 3 1008.8 - - - - - - - - -
02/10:30pm 10.8 S 3 4 1008.4 - - - - - - - - -
02/10:00pm 11.3 SSE 4 4 1008.3 - - - - - - - - -
02/09:30pm 11.0 SE 3 5 1008.2 - - - - - - - - -
02/09:00pm 10.9 SSW 4 5 1007.8 - - - - - - - - -
02/08:30pm 10.9 S 1 2 1007.8 - - - - - - - - -
02/08:00pm 10.9 SW 4 5 1007.6 - - - - - - - - -
02/07:30pm 11.1 WNW 4 6 1007.2 - - - - - - - - -
02/07:00pm 11.3 NNE 7 8 1007.0 - - - - - - - - -
02/06:30pm 11.3 NE 9 11 1006.5 - - - - - - - - -
02/06:00pm 11.6 NE 14 16 1005.9 - - - - - - - - -
02/05:30pm 11.7 NE 16 19 1005.3 - - - - - - - - -
02/05:00pm 11.8 NE 14 17 1005.0 - - - - - - - - -
02/04:30pm 11.9 NE 15 18 1005.0 - - - - - - - - -
02/04:00pm 11.6 NE 13 16 1005.2 - - - - - - - - -
02/03:30pm 11.9 NE 13 15 1005.1 - - - - - - - - -
02/03:00pm 12.1 NE 13 17 1005.3 - - - - - - - - -
02/02:30pm 12.0 NNE 10 12 1005.4 - - - - - - - - -
02/02:00pm 11.9 N 10 12 1005.6 - - - - - - - - -
02/01:30pm 12.1 N 8 10 1006.3 - - - - - - - - -
02/01:00pm 12.3 N 10 12 1006.6 - - - - - - - - -
02/12:30pm 12.2 NNE 11 13 1006.8 - - - - - - - - -
02/12:00pm 12.4 NE 9 11 1007.2 - - - - - - - - -
02/11:30am 12.1 NE 6 8 1007.1 - - - - - - - - -
02/11:00am 11.9 N 6 7 1007.3 - - - - - - - - -
02/10:30am 12.6 NNE 8 11 1007.6 - - - - - - - - -
02/10:00am 12.7 NNE 8 10 1007.9 - - - - - - - - -
02/09:30am 12.9 NNE 10 12 1007.9 - - - - - - - - -
02/09:00am 12.7 NE 9 11 1007.6 - - - - - - - - -
02/08:30am 12.8 NE 9 11 1007.8 - - - - - - - - -
02/08:00am 12.9 NE 9 12 1007.6 - - - - - - - - -
02/07:30am 13.3 NE 10 13 1007.4 - - - - - - - - -
02/07:00am 13.6 NNE 10 13 1007.5 - - - - - - - - -
02/06:30am 13.6 NNE 13 15 1007.6 - - - - - - - - -
02/06:00am 13.4 NNE 5 7 1007.7 - - - - - - - - -
02/05:30am 13.3 N 4 7 1007.8 - - - - - - - - -
02/05:00am 13.1 N 6 8 1008.1 - - - - - - - - -
02/04:30am 13.2 N 7 9 1007.9 - - - - - - - - -
02/04:00am 13.0 NNE 6 7 1008.1 - - - - - - - - -
02/03:30am 13.1 N 7 11 1008.2 - - - - - - - - -
02/03:00am 13.5 N 12 13 1008.5 - - - - - - - - -
02/02:30am 13.5 N 13 15 1008.7 - - - - - - - - -
02/02:00am 13.6 N 12 15 1008.9 - - - - - - - - -
02/01:30am 13.9 N 12 16 1009.0 - - - - - - - - -
02/01:00am 13.8 NNE 5 9 1009.1 - - - - - - - - -
02/12:30am 13.4 ENE 6 8 1009.4 - - - - - - - - -
02/12:00am 13.2 E 6 8 1009.6 - - - - - - - - -
 
Date/Time
EST
Temp

°C
Wind Pressure Rain
since 9am
mm
Weather Cloud Vis
km
Sea
Height
m
Swell
Dir
 
Speed
knots
Gust
knots
hPa Trend Height
m
Period
s
Dir
01/11:30pm 13.0 ESE 6 7 1009.8 - - - - - - - - -
01/11:00pm 13.0 ESE 4 5 1010.1 - - - - - - - - -
01/10:30pm 13.0 E 4 5 1010.2 - - - - - - - - -
01/10:00pm 13.1 E 5 6 1010.4 - - - - - - - - -
01/09:30pm 13.0 E 5 6 1010.4 - - - - - - - - -
01/09:00pm 13.1 ENE 5 7 1010.5 - - - - - - - - -
01/08:30pm 13.3 NE 7 8 1010.7 - - - - - - - - -
01/08:00pm 13.5 ENE 10 11 1010.6 - - - - - - - - -
01/07:30pm 13.3 E 10 12 1010.5 - - - - - - - - -
01/07:00pm 13.3 E 9 12 1010.8 - - - - - - - - -
01/06:30pm 13.2 E 9 12 1010.7 - - - - - - - - -
01/06:00pm 13.2 E 11 13 1010.5 - - - - - - - - -
01/05:30pm 13.2 ESE 9 12 1010.7 - - - - - - - - -
01/05:00pm 12.9 ESE 9 13 1010.5 - - - - - - - - -
01/04:30pm 12.9 ESE 11 14 1010.3 - - - - - - - - -
01/04:00pm 12.6 ESE 10 12 1010.8 - - - - - - - - -
01/03:30pm 12.3 ESE 10 12 1011.3 - - - - - - - - -
01/03:00pm 12.1 ESE 8 10 1011.8 - - - - - - - - -
01/02:30pm 11.9 ESE 8 9 1012.1 - - - - - - - - -
01/02:00pm 11.5 ESE 7 9 1012.6 - - - - - - - - -
01/01:30pm 11.2 E 6 9 1012.9 - - - - - - - - -
01/01:00pm 10.5 ENE 6 8 1013.5 - - - - - - - - -
01/12:30pm 10.0 ENE 7 8 1013.9 - - - - - - - - -
01/12:00pm 9.1 ENE 6 8 1014.4 - - - - - - - - -
01/11:30am 8.8 ENE 5 6 1015.0 - - - - - - - - -
01/11:00am 8.6 NNE 3 5 1015.6 - - - - - - - - -
01/10:30am 8.0 NNE 3 5 1015.9 - - - - - - - - -
01/10:00am 7.5 NE 3 5 1016.2 - - - - - - - - -
01/09:30am 7.3 NNE 4 5 1016.3 - - - - - - - - -
01/09:00am 7.2 NNE 2 3 1016.3 - - - - - - - - -
01/08:30am 6.5 SSW 1 2 1016.3 - - - - - - - - -
01/08:00am 5.0 WSW 3 4 1016.4 - - - - - - - - -
01/07:30am 3.5 WSW 3 4 1016.3 - - - - - - - - -
01/07:00am 3.9 WSW 3 4 1016.1 - - - - - - - - -
01/06:30am 4.1 SW 3 4 1015.9 - - - - - - - - -
01/06:00am 4.5 WSW 4 5 1015.9 - - - - - - - - -
01/05:30am 7.2 NNE 3 7 1015.7 - - - - - - - - -
01/05:00am 7.7 N 7 9 1015.8 - - - - - - - - -
01/04:30am 7.9 NNE 8 9 1015.8 - - - - - - - - -
01/04:00am 7.8 NNE 7 9 1015.9 - - - - - - - - -
01/03:30am 6.6 WSW 2 3 1016.2 - - - - - - - - -
01/03:00am 6.7 SW 3 4 1016.8 - - - - - - - - -
01/02:30am 8.1 NNW 5 7 1017.1 - - - - - - - - -
01/02:00am 8.6 NNW 6 7 1017.4 - - - - - - - - -
01/01:30am 9.0 N 3 5 1017.7 - - - - - - - - -
01/01:00am 8.3 W 3 4 1018.1 - - - - - - - - -
01/12:30am 9.1 NNW 4 5 1018.4 - - - - - - - - -
01/12:00am 9.3 NNW 6 8 1018.8 - - - - - - - - -
 
Date/Time
EST
Temp

°C
Wind Pressure Rain
since 9am
mm
Weather Cloud Vis
km
Sea
Height
m
Swell
Dir
 
Speed
knots
Gust
knots
hPa Trend Height
m
Period
s
Dir
31/11:30pm 9.3 N 6 7 1018.8 - - - - - - - - -
31/11:00pm 9.6 NNE 7 8 1019.1 - - - - - - - - -
31/10:30pm 10.0 S 3 4 1019.3 - - - - - - - - -
31/10:00pm 10.3 SSE 3 5 1019.5 - - - - - - - - -
31/09:30pm 10.4 ENE 3 6 1019.3 - - - - - - - - -
31/09:00pm 10.3 E 3 4 1019.6 - - - - - - - - -
31/08:30pm 10.4 E 4 6 1019.5 - - - - - - - - -
31/08:00pm 10.6 E 5 9 1019.3 - - - - - - - - -
31/07:30pm 10.5 E 6 8 1019.2 - - - - - - - - -
31/07:00pm 10.4 E 6 8 1018.9 - - - - - - - - -
31/06:30pm 10.4 E 4 6 1019.0 - - - - - - - - -
31/06:00pm 10.3 E 5 7 1019.0 - - - - - - - - -
31/05:30pm 10.4 SE 5 7 1019.0 - - - - - - - - -
31/05:00pm 10.3 SE 6 8 1019.3 - - - - - - - - -
31/04:30pm 10.1 ESE 6 9 1019.3 - - - - - - - - -
31/04:00pm 10.1 ESE 8 11 1019.6 - - - - - - - - -
31/03:30pm 10.1 ESE 8 11 1019.8 - - - - - - - - -
31/03:00pm 10.4 ESE 5 6 1020.0 - - - - - - - - -
31/02:30pm 10.2 E 5 6 1020.0 - - - - - - - - -
31/02:00pm 9.9 E 5 7 1020.1 - - - - - - - - -
31/01:30pm 10.1 E 4 6 1020.6 - - - - - - - - -
31/01:00pm 10.3 E 3 5 1020.9 - - - - - - - - -
31/12:30pm 10.0 ESE 4 6 1021.3 - - - - - - - - -
31/12:00pm 9.3 NE 3 4 1021.8 - - - - - - - - -
31/11:30am 8.5 NE 3 4 1022.1 - - - - - - - - -
31/11:00am 8.8 W 1 3 1022.1 - - - - - - - - -
31/10:30am 8.7 S 3 5 1022.1 - - - - - - - - -
31/10:00am 9.2 S 3 7 1022.2 - - - - - - - - -
31/09:30am 9.2 WSW 3 5 1022.1 - - - - - - - - -
31/09:00am 9.5 WSW 6 8 1022.3 - - - - - - - - -
31/08:30am 9.0 WSW 4 6 1022.1 - - - - - - - - -
31/08:00am 7.7 W 3 4 1022.2 - - - - - - - - -
31/07:30am 8.1 WSW 4 5 1022.1 - - - - - - - - -
31/07:00am 7.8 WNW 2 3 1021.8 - - - - - - - - -
31/06:30am 7.5 WSW 3 3 1021.9 - - - - - - - - -
31/06:00am 7.4 WNW 6 7 1021.7 - - - - - - - - -
31/05:30am 7.4 W 5 8 1021.7 - - - - - - - - -
31/05:00am 7.8 W 6 7 1021.8 - - - - - - - - -
31/04:30am 7.8 W 4 6 1021.7 - - - - - - - - -
31/04:00am 7.8 W 4 6 1021.7 - - - - - - - - -
31/03:30am 8.0 W 4 6 1021.9 - - - - - - - - -
31/03:00am 8.3 WNW 4 5 1022.2 - - - - - - - - -
31/02:30am 8.5 W 2 3 1022.7 - - - - - - - - -
31/02:00am 8.8 SW 3 4 1023.0 - - - - - - - - -
31/01:30am 9.0 WSW 2 5 1023.5 - - - - - - - - -
31/01:00am 9.1 SSW 6 7 1023.7 - - - - - - - - -

Other Formats:

Comma delimited format used in spreadsheet applications
http://www.bom.gov.au/fwo/IDV60701/IDV60701.95826.axf

JavaScript Object Notation format (JSON) in row-major order
http://www.bom.gov.au/fwo/IDV60701/IDV60701.95826.json